Time;durP1;ratioP1;P1;durP2;ratioP2;P2;SDS_P1;SDS_P2;PMS_P1;PMS_P2;Temp;Humidity;BMP_temperature;BMP_pressure;BME280_temperature;BME280_humidity;BME280_pressure;Samples;Min_cycle;Max_cycle;Signal;HPM_P1;HPM_P2
2021/10/26 00:02:04;;;;;;;4.35;1.05;;;;;;;10.56;73.14;100612.28;5044950;28;20044;-83
2021/10/26 00:04:31;;;;;;;16.67;2.55;;;;;;;10.58;73.24;100615.50;5042881;28;20037;-82
2021/10/26 00:06:58;;;;;;;8.75;1.48;;;;;;;10.60;72.88;100611.22;5027237;28;20127;-82
2021/10/26 00:09:25;;;;;;;5.30;1.33;;;;;;;10.60;73.13;100610.41;5029540;28;20061;-82
2021/10/26 00:11:52;;;;;;;8.98;1.48;;;;;;;10.61;72.83;100603.72;5045192;28;20048;-81
2021/10/26 00:14:19;;;;;;;5.53;1.13;;;;;;;10.61;72.82;100610.09;5027402;28;20045;-82
2021/10/26 00:16:46;;;;;;;11.73;2.08;;;;;;;10.63;72.79;100618.03;5041258;28;20088;-82
2021/10/26 00:19:13;;;;;;;5.82;0.95;;;;;;;10.64;72.87;100614.13;5043028;28;20052;-81
2021/10/26 00:21:40;;;;;;;8.13;1.33;;;;;;;10.65;72.81;100619.28;5027839;28;20036;-82
2021/10/26 00:24:07;;;;;;;5.72;1.08;;;;;;;10.65;72.76;100626.78;5043408;28;20044;-81
2021/10/26 00:26:33;;;;;;;3.38;0.90;;;;;;;10.67;72.76;100610.66;5043006;28;20477;-83
2021/10/26 00:29:00;;;;;;;5.13;1.13;;;;;;;10.66;72.80;100609.03;5026395;28;20394;-83
2021/10/26 00:31:27;;;;;;;4.72;1.25;;;;;;;10.67;72.50;100607.88;5021839;28;20041;-82
2021/10/26 00:33:55;;;;;;;12.93;1.42;;;;;;;10.67;72.59;100605.13;5039187;28;20141;-81
2021/10/26 00:36:22;;;;;;;5.30;0.90;;;;;;;10.67;72.69;100603.13;5024219;28;20049;-82
2021/10/26 00:38:49;;;;;;;6.03;1.08;;;;;;;10.66;72.55;100595.19;5045488;28;20119;-82
2021/10/26 00:41:16;;;;;;;7.38;1.08;;;;;;;10.65;72.67;100615.72;5065533;28;20029;-82
2021/10/26 00:43:43;;;;;;;5.57;0.98;;;;;;;10.67;72.60;100618.97;5064211;28;20110;-82
2021/10/26 00:46:11;;;;;;;4.90;0.95;;;;;;;10.65;72.36;100622.06;5062203;28;20082;-82
2021/10/26 00:48:38;;;;;;;9.25;1.60;;;;;;;10.66;72.82;100628.41;5045269;28;20119;-81
2021/10/26 00:51:07;;;;;;;7.72;1.05;;;;;;;10.63;73.04;100626.34;5056934;28;20044;-81
2021/10/26 00:53:35;;;;;;;7.85;1.65;;;;;;;10.64;73.12;100627.97;5064416;28;20045;-81
2021/10/26 00:56:03;;;;;;;7.18;0.95;;;;;;;10.62;73.27;100628.28;5063355;28;20036;-83
2021/10/26 00:58:30;;;;;;;6.38;1.67;;;;;;;10.60;73.33;100624.25;5051610;28;20037;-81
2021/10/26 01:00:57;;;;;;;30.98;2.53;;;;;;;10.56;73.20;100618.63;5055379;28;20045;-81
2021/10/26 01:03:24;;;;;;;9.15;1.27;;;;;;;10.56;73.45;100617.81;5043720;28;20396;-82
2021/10/26 01:05:51;;;;;;;5.35;0.73;;;;;;;10.57;73.67;100620.22;5041647;28;20045;-81
2021/10/26 01:08:19;;;;;;;4.18;0.80;;;;;;;10.55;73.83;100617.00;5060727;28;20052;-81
2021/10/26 01:10:48;;;;;;;5.18;0.77;;;;;;;10.54;73.88;100620.13;5062813;28;20044;-82
2021/10/26 01:13:15;;;;;;;5.13;0.98;;;;;;;10.53;73.87;100622.09;5061627;28;20083;-81
2021/10/26 01:15:42;;;;;;;4.43;0.80;;;;;;;10.54;74.24;100622.91;5046114;28;20048;-81
2021/10/26 01:18:09;;;;;;;7.93;1.88;;;;;;;10.54;74.19;100609.06;5046410;28;20063;-81
2021/10/26 01:20:36;;;;;;;3.15;0.88;;;;;;;10.54;74.30;100609.06;5045243;28;20071;-81
2021/10/26 01:23:03;;;;;;;8.38;1.15;;;;;;;10.54;74.60;100600.75;5064621;28;20040;-82
2021/10/26 01:25:30;;;;;;;4.45;0.88;;;;;;;10.53;74.60;100599.13;5043878;28;20041;-81
2021/10/26 01:27:58;;;;;;;4.10;1.52;;;;;;;10.51;74.90;100599.47;5057641;28;20086;-82
2021/10/26 01:30:31;;;;;;;3.35;0.63;;;;;;;10.48;74.98;100599.38;5060879;28;20086;-81
2021/10/26 01:32:59;;;;;;;4.20;0.80;;;;;;;10.46;75.21;100585.88;5060507;28;20044;-81
2021/10/26 01:35:26;;;;;;;7.60;1.20;;;;;;;10.44;75.48;100593.72;5024029;28;20049;-81
2021/10/26 01:37:53;;;;;;;3.72;0.95;;;;;;;10.43;75.73;100580.22;5058598;28;20098;-81
2021/10/26 01:40:20;;;;;;;8.05;1.88;;;;;;;10.43;75.69;100580.22;5043067;28;20080;-82
2021/10/26 01:42:47;;;;;;;6.78;1.23;;;;;;;10.42;75.47;100579.44;5059501;28;20136;-81
2021/10/26 01:45:15;;;;;;;5.82;1.00;;;;;;;10.43;75.97;100569.16;5045031;28;20131;-81
2021/10/26 01:47:42;;;;;;;4.95;0.90;;;;;;;10.44;76.22;100576.28;5062734;28;20499;-81
2021/10/26 01:50:13;;;;;;;2.50;0.80;;;;;;;10.43;76.12;100569.16;5060949;28;20072;-81
2021/10/26 01:52:40;;;;;;;6.72;1.00;;;;;;;10.45;76.30;100573.19;5056085;28;20048;-82
2021/10/26 01:55:08;;;;;;;4.93;1.13;;;;;;;10.46;76.29;100562.94;5029710;28;20044;-82
2021/10/26 01:57:36;;;;;;;6.35;1.27;;;;;;;10.48;76.18;100561.44;5054240;28;20086;-81
2021/10/26 02:00:09;;;;;;;3.78;0.90;;;;;;;10.47;76.42;100559.81;5061947;28;20037;-81
2021/10/26 02:02:36;;;;;;;2.35;0.90;;;;;;;10.48;76.57;100555.09;5044237;28;20128;-81
2021/10/26 02:05:04;;;;;;;6.90;1.15;;;;;;;10.49;76.68;100556.69;5041142;28;20066;-81
2021/10/26 02:07:32;;;;;;;1.20;0.43;;;;;;;10.50;76.59;100536.97;5048036;28;20052;-82
2021/10/26 02:09:59;;;;;;;6.70;0.77;;;;;;;10.52;76.65;100547.69;5049085;28;20105;-82
2021/10/26 02:12:26;;;;;;;5.00;1.02;;;;;;;10.52;76.75;100547.69;5067479;28;20087;-82
2021/10/26 02:14:53;;;;;;;5.60;0.90;;;;;;;10.52;76.88;100534.66;5066140;28;20077;-82
2021/10/26 02:17:20;;;;;;;10.20;2.70;;;;;;;10.58;76.70;100529.69;5049026;28;20447;-82
2021/10/26 02:19:46;;;;;;;3.45;0.77;;;;;;;10.58;76.71;100526.91;5049213;28;20040;-82
2021/10/26 02:22:14;;;;;;;4.43;0.88;;;;;;;10.60;76.87;100530.13;5046800;28;20072;-82
2021/10/26 02:24:40;;;;;;;5.78;0.77;;;;;;;10.60;76.81;100532.91;5067944;28;20563;-82
2021/10/26 02:27:07;;;;;;;6.53;1.02;;;;;;;10.61;77.09;100526.22;5060860;28;20453;-81
2021/10/26 02:29:34;;;;;;;9.85;1.38;;;;;;;10.61;77.09;100517.91;5066500;28;20098;-81
2021/10/26 02:32:01;;;;;;;3.47;0.75;;;;;;;10.61;77.52;100509.59;5065987;28;20064;-82
2021/10/26 02:34:28;;;;;;;3.55;1.75;;;;;;;10.62;77.53;100511.19;5050083;28;20076;-81
2021/10/26 02:36:55;;;;;;;2.47;0.60;;;;;;;10.62;77.63;100520.31;5065469;28;20041;-81
2021/10/26 02:39:22;;;;;;;4.03;1.00;;;;;;;10.62;77.93;100519.50;5048698;28;20147;-81
2021/10/26 02:41:49;;;;;;;3.50;0.93;;;;;;;10.58;78.30;100494.50;5047299;28;20036;-81
2021/10/26 02:44:16;;;;;;;6.70;1.13;;;;;;;10.57;78.31;100506.72;5048502;28;20131;-81
2021/10/26 02:46:43;;;;;;;5.88;0.90;;;;;;;10.57;78.70;100497.59;5065724;28;20127;-82
2021/10/26 02:49:10;;;;;;;12.30;3.50;;;;;;;10.56;78.86;100485.75;5043904;28;20439;-81
2021/10/26 02:51:37;;;;;;;5.95;1.02;;;;;;;10.56;79.10;100487.72;5050059;28;20076;-81
2021/10/26 02:54:05;;;;;;;4.10;0.80;;;;;;;10.55;79.19;100483.31;5064367;28;20951;-81
2021/10/26 02:56:33;;;;;;;8.48;0.95;;;;;;;10.54;79.79;100470.66;5064321;28;20091;-81
2021/10/26 02:58:59;;;;;;;5.10;0.88;;;;;;;10.54;80.06;100476.19;5066878;28;20068;-81
2021/10/26 03:01:26;;;;;;;6.30;0.75;;;;;;;10.54;79.86;100463.13;5048160;28;20098;-81
2021/10/26 03:03:53;;;;;;;7.38;1.42;;;;;;;10.56;80.13;100462.81;5047789;28;20055;-81
2021/10/26 03:06:20;;;;;;;3.17;1.00;;;;;;;10.54;80.57;100456.81;5062688;28;20068;-81
2021/10/26 03:08:47;;;;;;;2.47;0.57;;;;;;;10.53;80.81;100452.44;5047074;28;20048;-81
2021/10/26 03:11:14;;;;;;;3.38;1.05;;;;;;;10.54;80.95;100448.50;5041792;28;20056;-82
2021/10/26 03:13:41;;;;;;;9.65;1.88;;;;;;;10.53;81.22;100439.41;5059541;28;20054;-81
2021/10/26 03:16:08;;;;;;;5.45;1.15;;;;;;;10.53;81.33;100442.16;5050298;28;20113;-81
2021/10/26 03:18:35;;;;;;;5.28;0.95;;;;;;;10.54;81.80;100431.91;5066567;28;20471;-82
2021/10/26 03:21:02;;;;;;;1.27;0.60;;;;;;;10.54;81.84;100420.84;5064872;28;20144;-82
2021/10/26 03:23:29;;;;;;;3.78;0.98;;;;;;;10.55;82.07;100439.03;5040653;28;20048;-81
2021/10/26 03:25:56;;;;;;;4.10;0.65;;;;;;;10.57;82.24;100431.16;5049461;28;20090;-82
2021/10/26 03:28:22;;;;;;;4.13;1.00;;;;;;;10.61;82.23;100426.56;5060001;28;20042;-82
2021/10/26 03:30:49;;;;;;;4.47;0.70;;;;;;;10.63;82.25;100427.81;5049037;28;20162;-81
2021/10/26 03:33:16;;;;;;;4.88;0.85;;;;;;;10.66;82.41;100413.28;5065431;28;20033;-81
2021/10/26 03:35:43;;;;;;;6.85;0.90;;;;;;;10.67;82.67;100408.53;5062347;28;20040;-82
2021/10/26 03:38:11;;;;;;;2.67;0.65;;;;;;;10.68;82.83;100405.41;5059467;28;20520;-81
2021/10/26 03:40:38;;;;;;;1.00;0.47;;;;;;;10.71;83.01;100403.88;5060880;28;20092;-81
2021/10/26 03:43:06;;;;;;;4.15;0.60;;;;;;;10.73;83.19;100399.59;5068139;28;20040;-81
2021/10/26 03:45:33;;;;;;;3.22;0.82;;;;;;;10.76;83.41;100406.41;5063731;28;20076;-82
2021/10/26 03:48:00;;;;;;;3.42;0.68;;;;;;;10.79;83.51;100400.16;5064210;28;20044;-81
2021/10/26 03:50:27;;;;;;;3.20;0.68;;;;;;;10.83;83.59;100398.28;5049070;28;20048;-82
2021/10/26 03:52:53;;;;;;;3.60;0.70;;;;;;;10.86;83.48;100390.06;5047020;28;20086;-82
2021/10/26 03:55:21;;;;;;;2.65;0.40;;;;;;;10.90;83.93;100381.88;5058333;28;20133;-82
2021/10/26 03:57:48;;;;;;;7.47;1.45;;;;;;;10.92;83.84;100372.03;5054822;28;20427;-81
2021/10/26 04:00:15;;;;;;;3.53;0.70;;;;;;;10.94;84.19;100372.47;5060270;28;20044;-82
2021/10/26 04:02:42;;;;;;;2.33;0.55;;;;;;;10.97;83.92;100380.06;5059185;28;20037;-82
2021/10/26 04:07:58;;;;;;;1.40;0.60;;;;;;;11.05;83.82;100367.22;5057128;28;20048;-82
2021/10/26 04:13:26;;;;;;;3.88;0.88;;;;;;;11.08;84.11;100363.72;5024523;28;20057;-82
2021/10/26 04:15:54;;;;;;;1.40;0.43;;;;;;;11.12;83.83;100347.97;5062512;28;20492;-82
2021/10/26 04:18:23;;;;;;;2.35;0.40;;;;;;;11.15;84.12;100350.03;5061786;28;20048;-82
2021/10/26 04:20:51;;;;;;;4.38;0.60;;;;;;;11.20;84.09;100349.00;5058103;28;20484;-83
2021/10/26 04:23:18;;;;;;;1.40;0.40;;;;;;;11.22;84.12;100341.91;5059911;28;20431;-84
2021/10/26 04:25:44;;;;;;;5.55;0.52;;;;;;;11.25;84.38;100345.94;5064439;28;20123;-83
2021/10/26 04:28:11;;;;;;;5.53;0.70;;;;;;;11.31;84.13;100336.97;5064205;28;20060;-83
2021/10/26 04:30:39;;;;;;;4.85;0.40;;;;;;;11.34;84.35;100349.31;5057610;28;20044;-84
2021/10/26 04:33:06;;;;;;;3.47;0.73;;;;;;;11.38;84.40;100345.47;5042772;28;20127;-83
2021/10/26 04:35:34;;;;;;;4.55;0.73;;;;;;;11.43;84.28;100347.16;5043492;28;20742;-83
2021/10/26 04:38:01;;;;;;;1.35;0.40;;;;;;;11.47;84.34;100342.50;5058977;28;20492;-83
2021/10/26 04:40:28;;;;;;;4.90;0.77;;;;;;;11.49;84.26;100340.97;5042669;28;20080;-83
2021/10/26 04:42:55;;;;;;;3.33;0.60;;;;;;;11.53;84.44;100335.50;5044433;28;20036;-83
2021/10/26 04:45:22;;;;;;;0.68;0.30;;;;;;;11.58;84.45;100344.34;5063649;28;20044;-82
2021/10/26 04:47:49;;;;;;;4.63;1.00;;;;;;;11.61;84.47;100343.63;5055053;28;20045;-83
2021/10/26 04:50:17;;;;;;;5.45;0.85;;;;;;;11.65;84.70;100343.69;5061670;28;20052;-83
2021/10/26 04:52:44;;;;;;;2.03;0.43;;;;;;;11.68;84.30;100350.47;5058201;28;20049;-83
2021/10/26 04:55:12;;;;;;;4.28;0.75;;;;;;;11.71;84.37;100347.03;5061266;28;20469;-83
2021/10/26 04:57:40;;;;;;;0.80;0.32;;;;;;;11.73;84.60;100351.03;5062947;28;20094;-82
2021/10/26 05:00:09;;;;;;;7.75;0.50;;;;;;;11.75;84.15;100348.72;5043012;28;20044;-83
2021/10/26 05:02:37;;;;;;;3.15;0.45;;;;;;;11.77;84.50;100345.56;5061633;28;20400;-83
2021/10/26 05:05:05;;;;;;;2.38;0.40;;;;;;;11.80;84.31;100347.63;5062102;28;20037;-83
2021/10/26 05:07:33;;;;;;;2.35;0.52;;;;;;;11.81;84.50;100343.69;5061582;28;20059;-83
2021/10/26 05:10:00;;;;;;;2.35;0.60;;;;;;;11.84;84.54;100352.09;5055796;28;20068;-83
2021/10/26 05:12:27;;;;;;;2.83;0.93;;;;;;;11.89;84.77;100356.53;5043477;28;20052;-83
2021/10/26 05:14:54;;;;;;;8.10;1.17;;;;;;;11.92;84.62;100353.03;5029513;28;20110;-83
2021/10/26 05:17:23;;;;;;;0.50;0.40;;;;;;;11.95;84.71;100344.78;5059201;28;20053;-82
2021/10/26 05:19:51;;;;;;;2.17;0.60;;;;;;;11.97;84.76;100341.66;5062543;28;20476;-83
2021/10/26 05:22:19;;;;;;;1.67;0.50;;;;;;;11.99;84.81;100339.34;5037327;28;20052;-83
2021/10/26 05:24:46;;;;;;;2.33;0.60;;;;;;;12.00;84.99;100341.72;5042752;28;20044;-83
2021/10/26 05:27:13;;;;;;;1.42;0.70;;;;;;;12.02;84.72;100346.94;5062690;28;20052;-82
2021/10/26 05:29:40;;;;;;;3.90;0.90;;;;;;;12.03;84.81;100359.63;5046346;28;20098;-83
2021/10/26 05:32:11;;;;;;;2.47;0.52;;;;;;;12.05;84.91;100348.94;5064184;28;20101;-82
2021/10/26 05:34:39;;;;;;;3.53;0.50;;;;;;;12.07;85.21;100349.41;5061875;28;20059;-83
2021/10/26 05:37:07;;;;;;;4.40;0.63;;;;;;;12.08;85.32;100345.44;5042033;28;20102;-82
2021/10/26 05:39:34;;;;;;;4.95;0.50;;;;;;;12.11;84.99;100355.81;5056992;28;20988;-83
2021/10/26 05:42:01;;;;;;;2.55;0.80;;;;;;;12.13;85.04;100350.72;5061650;28;20064;-81
2021/10/26 05:44:28;;;;;;;2.95;0.77;;;;;;;12.15;85.08;100337.28;5046317;28;20064;-82
2021/10/26 05:46:55;;;;;;;2.38;0.70;;;;;;;12.15;85.28;100346.41;5043697;28;20083;-83
2021/10/26 05:49:22;;;;;;;5.40;0.90;;;;;;;12.19;85.06;100335.38;5064521;28;20052;-82
2021/10/26 05:51:49;;;;;;;1.35;0.55;;;;;;;12.22;85.08;100337.44;5042848;28;20064;-84
2021/10/26 05:54:16;;;;;;;7.25;1.45;;;;;;;12.25;85.54;100344.22;5039026;28;20176;-82
2021/10/26 05:56:43;;;;;;;3.50;0.82;;;;;;;12.27;85.60;100336.31;5041030;28;20811;-84
2021/10/26 05:59:10;;;;;;;5.25;0.90;;;;;;;12.29;85.38;100334.78;5063315;28;20076;-82
2021/10/26 06:01:37;;;;;;;1.77;0.57;;;;;;;12.31;85.22;100332.44;5043587;28;20478;-82
2021/10/26 06:04:03;;;;;;;4.93;0.75;;;;;;;12.32;84.99;100316.59;5059685;28;20032;-82
2021/10/26 06:06:30;;;;;;;3.95;0.93;;;;;;;12.32;85.12;100331.28;5060785;28;20045;-82
2021/10/26 06:08:57;;;;;;;4.28;1.02;;;;;;;12.33;85.28;100313.47;5046469;28;20068;-82
2021/10/26 06:11:25;;;;;;;3.55;0.88;;;;;;;12.34;85.30;100312.28;5039365;28;20500;-83
2021/10/26 06:14:05;;;;;;;4.05;0.80;;;;;;;12.36;85.72;100311.94;5058210;28;20049;-82
2021/10/26 06:16:34;;;;;;;6.40;0.82;;;;;;;12.38;85.39;100313.16;5029821;28;20122;-83
2021/10/26 06:19:02;;;;;;;6.45;0.90;;;;;;;12.40;85.39;100310.81;5060785;28;20123;-82
2021/10/26 06:21:28;;;;;;;5.40;0.93;;;;;;;12.40;85.46;100319.16;5066320;28;20086;-83
2021/10/26 06:23:56;;;;;;;5.25;1.20;;;;;;;12.42;85.74;100316.00;5062172;28;20045;-83
2021/10/26 06:26:24;;;;;;;4.13;1.27;;;;;;;12.42;85.56;100316.78;5061641;28;20051;-84
2021/10/26 06:28:51;;;;;;;5.30;1.60;;;;;;;12.43;85.54;100318.41;5046668;28;20067;-83
2021/10/26 06:31:18;;;;;;;6.20;1.60;;;;;;;12.43;85.62;100318.41;5039300;28;20049;-82
2021/10/26 06:33:45;;;;;;;5.10;1.55;;;;;;;12.44;85.79;100320.03;5043403;28;20060;-83
2021/10/26 06:36:13;;;;;;;3.90;1.38;;;;;;;12.47;85.87;100308.16;5045869;28;20127;-83
2021/10/26 06:38:40;;;;;;;4.65;1.90;;;;;;;12.49;85.61;100316.94;5064147;28;20427;-82
2021/10/26 06:41:07;;;;;;;8.43;1.38;;;;;;;12.50;85.60;100323.28;5044376;28;20483;-83
2021/10/26 06:43:35;;;;;;;5.85;1.95;;;;;;;12.51;85.90;100314.59;5044083;28;20447;-83
2021/10/26 06:46:04;;;;;;;7.53;1.20;;;;;;;12.53;85.67;100320.59;5058132;28;20128;-82
2021/10/26 06:48:30;;;;;;;8.75;1.27;;;;;;;12.55;85.67;100325.78;5020762;28;20971;-83
2021/10/26 06:50:57;;;;;;;4.43;1.08;;;;;;;12.54;85.67;100313.88;5041535;28;20072;-82
2021/10/26 06:53:25;;;;;;;5.20;1.17;;;;;;;12.57;85.88;100324.25;5062948;28;20048;-83
2021/10/26 06:55:52;;;;;;;5.55;1.08;;;;;;;12.59;85.75;100321.09;5045314;28;20037;-83
2021/10/26 06:58:19;;;;;;;5.63;0.77;;;;;;;12.58;85.94;100327.78;5061691;28;20122;-82
2021/10/26 07:00:46;;;;;;;4.55;1.25;;;;;;;12.58;86.06;100322.25;5064872;28;20044;-83
2021/10/26 07:03:13;;;;;;;3.35;0.88;;;;;;;12.58;85.94;100320.28;5041129;28;20037;-83
2021/10/26 07:05:40;;;;;;;8.77;1.58;;;;;;;12.59;85.89;100310.78;5059995;28;20060;-82
2021/10/26 07:08:07;;;;;;;3.95;0.90;;;;;;;12.58;85.93;100320.28;5047216;28;20160;-83
2021/10/26 07:10:34;;;;;;;3.92;0.80;;;;;;;12.58;86.13;100309.16;5048850;28;20054;-83
2021/10/26 07:13:02;;;;;;;3.17;1.17;;;;;;;12.60;85.92;100323.47;5043481;28;20039;-83
2021/10/26 07:15:32;;;;;;;2.10;0.75;;;;;;;12.61;86.15;100324.28;5049300;28;20123;-83
2021/10/26 07:17:59;;;;;;;5.82;1.23;;;;;;;12.63;85.88;100336.63;5065519;28;20068;-84
2021/10/26 07:20:26;;;;;;;8.70;1.05;;;;;;;12.65;86.23;100328.75;5048949;28;20135;-82
2021/10/26 07:22:54;;;;;;;8.38;1.35;;;;;;;12.66;85.96;100344.22;5060178;28;20037;-83
2021/10/26 07:25:22;;;;;;;9.60;1.52;;;;;;;12.68;85.86;100314.09;5064510;28;20064;-83
2021/10/26 07:27:52;;;;;;;5.10;0.90;;;;;;;12.67;86.09;100323.63;5045090;28;20072;-83
2021/10/26 07:30:19;;;;;;;2.97;0.90;;;;;;;12.69;86.14;100321.28;5044024;28;20488;-83
2021/10/26 07:32:46;;;;;;;8.20;2.05;;;;;;;12.72;86.06;100323.31;5024738;28;20605;-83
2021/10/26 07:35:14;;;;;;;7.20;0.80;;;;;;;12.73;86.21;100324.91;5027676;28;20135;-82
2021/10/26 07:37:45;;;;;;;4.18;0.90;;;;;;;12.74;86.03;100326.53;5030635;28;20538;-80
2021/10/26 07:40:14;;;;;;;8.07;1.10;;;;;;;12.76;86.02;100320.63;5058668;28;20072;-79
2021/10/26 07:42:45;;;;;;;12.32;1.00;;;;;;;12.79;85.95;100342.88;5046963;28;20181;-79
2021/10/26 07:45:12;;;;;;;6.90;1.42;;;;;;;12.81;86.08;100334.97;5066600;28;20119;-80
2021/10/26 07:47:39;;;;;;;7.70;1.10;;;;;;;12.84;85.88;100334.22;5047831;28;20048;-79
2021/10/26 07:50:07;;;;;;;8.30;1.02;;;;;;;12.87;86.10;100354.91;5065469;28;20051;-84
2021/10/26 07:52:36;;;;;;;5.05;1.02;;;;;;;12.90;85.99;100350.59;5056369;28;20048;-80
2021/10/26 07:55:05;;;;;;;9.60;2.50;;;;;;;12.93;86.00;100360.97;5037943;28;21847;-79
2021/10/26 07:57:32;;;;;;;4.03;1.10;;;;;;;12.94;85.79;100360.63;5049279;28;20094;-80
2021/10/26 07:59:59;;;;;;;2.90;0.85;;;;;;;12.96;85.73;100357.47;5029338;28;20072;-79
2021/10/26 08:02:26;;;;;;;3.60;0.90;;;;;;;12.99;85.59;100356.72;5065517;28;20076;-79
2021/10/26 08:04:55;;;;;;;12.80;0.90;;;;;;;13.00;85.71;100363.91;5041920;28;20131;-79
2021/10/26 08:07:23;;;;;;;4.18;1.10;;;;;;;13.02;85.81;100367.09;5046583;28;20049;-79
2021/10/26 08:09:55;;;;;;;5.43;1.08;;;;;;;13.06;85.61;100367.94;5028857;28;20075;-79
2021/10/26 08:12:23;;;;;;;3.83;1.13;;;;;;;13.08;85.85;100368.44;5060723;28;20041;-80
2021/10/26 08:14:51;;;;;;;4.90;1.02;;;;;;;13.12;85.81;100367.31;5065877;28;20044;-79
2021/10/26 08:17:18;;;;;;;5.78;1.30;;;;;;;13.16;85.66;100367.34;5063442;28;20084;-79
2021/10/26 08:19:47;;;;;;;7.07;1.38;;;;;;;13.20;85.44;100376.56;5064504;28;20147;-79
2021/10/26 08:22:17;;;;;;;3.08;0.82;;;;;;;13.22;85.20;100354.75;5060565;28;20028;-79
2021/10/26 08:24:46;;;;;;;4.88;1.27;;;;;;;13.25;85.13;100363.16;5062050;28;20107;-79
2021/10/26 08:27:17;;;;;;;11.85;3.22;;;;;;;13.27;85.31;100362.78;5045108;28;20067;-79
2021/10/26 08:32:46;;;;;;;2.42;1.02;;;;;;;13.35;84.93;100364.50;5065004;28;20124;-79
2021/10/26 08:37:52;;;;;;;7.30;1.35;;;;;;;13.38;84.94;100358.19;5063949;28;20055;-79
2021/10/26 08:40:20;;;;;;;8.73;1.75;;;;;;;13.40;85.01;100344.72;5060387;28;20060;-80
2021/10/26 08:42:48;;;;;;;6.88;1.30;;;;;;;13.41;84.74;100351.91;5060589;28;20060;-79
2021/10/26 08:45:19;;;;;;;7.55;1.23;;;;;;;13.42;84.94;100359.06;5045801;28;20052;-79
2021/10/26 08:47:47;;;;;;;9.13;1.75;;;;;;;13.45;84.81;100363.09;5061673;28;20041;-79
2021/10/26 08:50:14;;;;;;;10.07;1.10;;;;;;;13.45;84.63;100358.28;5042712;28;20127;-79
2021/10/26 08:52:43;;;;;;;6.60;1.45;;;;;;;13.48;84.59;100349.22;5060627;28;20660;-79
2021/10/26 08:55:10;;;;;;;10.50;1.95;;;;;;;13.50;84.60;100360.78;5041618;28;20072;-79
2021/10/26 08:57:37;;;;;;;3.20;1.15;;;;;;;13.54;84.57;100361.63;5063627;28;20040;-79
2021/10/26 09:00:07;;;;;;;8.73;3.08;;;;;;;13.58;84.28;100367.25;5046932;28;20072;-79
2021/10/26 09:02:35;;;;;;;6.22;1.75;;;;;;;13.62;84.29;100373.66;5042591;28;20745;-79
2021/10/26 09:05:12;;;;;;;7.32;1.80;;;;;;;13.62;84.41;100368.91;5046765;28;20060;-80
2021/10/26 09:07:39;;;;;;;8.50;1.35;;;;;;;13.68;84.43;100377.72;5059323;28;20045;-79
2021/10/26 09:10:15;;;;;;;7.97;1.30;;;;;;;13.70;84.28;100376.19;5025647;28;20040;-79
2021/10/26 09:18:00;;;;;;;12.55;2.00;;;;;;;13.80;84.02;100364.41;5051808;28;20767;-79
2021/10/26 09:20:31;;;;;;;8.13;1.48;;;;;;;13.86;84.06;100371.25;5047000;28;20067;-79
2021/10/26 09:23:02;;;;;;;4.93;1.48;;;;;;;13.91;83.83;100359.78;5023124;28;20111;-79
2021/10/26 09:25:37;;;;;;;7.07;2.40;;;;;;;13.95;83.55;100360.63;5057066;28;20496;-79
2021/10/26 09:28:19;;;;;;;11.98;1.65;;;;;;;13.98;83.39;100359.88;5055276;28;20090;-79
2021/10/26 09:31:07;;;;;;;6.60;1.75;;;;;;;14.00;83.43;100351.94;5038173;28;20095;-79
2021/10/26 09:33:37;;;;;;;4.95;1.35;;;;;;;14.03;83.27;100351.19;5056174;28;20047;-79
2021/10/26 09:36:28;;;;;;;7.90;1.73;;;;;;;14.06;83.25;100332.94;5058621;28;20484;-79
2021/10/26 09:39:17;;;;;;;11.73;1.80;;;;;;;14.09;83.16;100328.59;5053838;28;20037;-79
2021/10/26 09:41:53;;;;;;;9.85;3.25;;;;;;;14.10;82.94;100325.44;5056712;28;20450;-78
2021/10/26 09:44:45;;;;;;;10.85;2.13;;;;;;;14.14;82.74;100322.72;5032547;28;20448;-79
2021/10/26 09:47:19;;;;;;;12.35;1.83;;;;;;;14.17;82.83;100328.28;5047567;28;20041;-78
2021/10/26 09:50:01;;;;;;;12.00;2.28;;;;;;;14.20;82.88;100302.50;5047848;28;20571;-81
2021/10/26 09:52:36;;;;;;;8.02;1.63;;;;;;;14.25;82.42;100306.91;5054968;28;20437;-79
2021/10/26 09:55:15;;;;;;;12.50;2.88;;;;;;;14.28;82.54;100317.28;5056820;28;20051;-79
2021/10/26 09:57:53;;;;;;;7.45;1.77;;;;;;;14.32;82.35;100320.97;5051318;28;20061;-79
2021/10/26 10:00:26;;;;;;;12.95;2.70;;;;;;;14.36;82.32;100314.25;5035314;28;20443;-79
2021/10/26 10:03:18;;;;;;;12.45;1.92;;;;;;;14.39;82.08;100319.06;5037340;28;20145;-79
2021/10/26 10:05:56;;;;;;;11.35;1.95;;;;;;;14.40;82.10;100319.84;5050551;28;20512;-79
2021/10/26 10:08:33;;;;;;;7.32;1.80;;;;;;;14.41;81.96;100308.31;5050892;28;20094;-79
2021/10/26 10:11:14;;;;;;;12.93;3.60;;;;;;;14.46;81.97;100318.31;5055741;28;20116;-79
2021/10/26 10:13:51;;;;;;;7.50;2.15;;;;;;;14.46;82.02;100318.31;5054291;28;20044;-79
2021/10/26 10:16:23;;;;;;;8.93;1.70;;;;;;;14.48;82.01;100315.97;5054437;28;20078;-79
2021/10/26 10:18:51;;;;;;;;;;;;;;;14.48;81.66;100313.97;5053899;28;20045;-79
2021/10/26 10:21:28;;;;;;;18.00;3.97;;;;;;;14.52;81.66;100325.16;5055417;28;19983;-80
2021/10/26 10:23:58;;;;;;;9.85;2.08;;;;;;;14.56;81.64;100312.06;5040246;28;20111;-81
2021/10/26 10:26:28;;;;;;;8.52;2.00;;;;;;;14.60;81.54;100304.53;5034929;28;20048;-79
2021/10/26 10:28:56;;;;;;;11.07;1.83;;;;;;;14.64;81.15;100300.59;5056498;28;20091;-80
2021/10/26 10:31:25;;;;;;;12.38;2.20;;;;;;;14.69;81.09;100287.50;5060487;28;20049;-79
2021/10/26 10:33:54;;;;;;;9.80;2.65;;;;;;;14.74;80.85;100296.34;5042106;28;20496;-79
2021/10/26 10:36:22;;;;;;;12.68;3.05;;;;;;;14.80;80.75;100294.00;5058328;28;20175;-80
2021/10/26 10:38:52;;;;;;;13.23;2.08;;;;;;;14.85;80.41;100290.84;5060039;28;20121;-79
2021/10/26 10:41:37;;;;;;;7.53;2.30;;;;;;;14.88;80.18;100290.09;5055025;28;20060;-79
2021/10/26 10:44:05;;;;;;;5.68;1.60;;;;;;;14.94;80.17;100300.47;5058984;28;20527;-79
2021/10/26 10:46:43;;;;;;;8.88;2.25;;;;;;;14.97;79.71;100290.53;5040291;28;20051;-79
2021/10/26 10:49:22;;;;;;;14.68;2.40;;;;;;;15.02;79.34;100298.53;5059517;28;20059;-80
2021/10/26 10:51:57;;;;;;;12.65;2.67;;;;;;;15.07;79.42;100309.34;5058569;28;20127;-78
2021/10/26 10:54:49;;;;;;;9.70;1.65;;;;;;;15.13;79.17;100293.88;5032897;28;20043;-79
2021/10/26 10:57:18;;;;;;;16.60;3.10;;;;;;;15.16;79.51;100307.84;5056699;28;20084;-79
2021/10/26 10:59:50;;;;;;;8.55;2.53;;;;;;;15.19;79.43;100298.72;5058049;28;20048;-78
2021/10/26 11:02:25;;;;;;;11.45;2.17;;;;;;;15.22;79.20;100311.84;5047357;28;20524;-79
2021/10/26 11:04:54;;;;;;;8.23;1.88;;;;;;;15.26;79.29;100311.88;5024011;28;20056;-80
2021/10/26 11:07:42;;;;;;;5.93;1.77;;;;;;;15.32;78.43;100321.50;5060171;28;20051;-79
2021/10/26 11:10:14;;;;;;;12.85;1.98;;;;;;;15.36;78.56;100311.16;5058246;28;20040;-80
2021/10/26 11:12:43;;;;;;;8.88;1.92;;;;;;;15.41;78.35;100318.38;5059392;28;20093;-80
2021/10/26 11:15:13;;;;;;;11.55;2.20;;;;;;;15.49;78.35;100320.84;5060053;28;20132;-79
2021/10/26 11:17:40;;;;;;;14.07;4.30;;;;;;;15.55;78.13;100318.50;5056604;28;20715;-80
2021/10/26 11:20:26;;;;;;;9.10;1.88;;;;;;;15.62;76.66;100315.75;5056610;28;20040;-80
2021/10/26 11:23:05;;;;;;;6.68;1.90;;;;;;;15.70;76.79;100309.03;5041458;28;20127;-80
2021/10/26 11:25:43;;;;;;;12.25;3.22;;;;;;;15.77;76.61;100326.63;5043691;28;20067;-79
2021/10/26 11:28:15;;;;;;;6.35;2.53;;;;;;;15.83;75.90;100304.72;5060043;28;21551;-81
2021/10/26 11:30:41;;;;;;;11.77;2.30;;;;;;;15.87;75.95;100308.31;5060175;28;20052;-79
2021/10/26 11:33:15;;;;;;;9.60;1.80;;;;;;;15.90;75.19;100307.53;5057292;28;20120;-79
2021/10/26 11:36:06;;;;;;;14.50;2.28;;;;;;;15.91;74.62;100303.56;5035083;28;20057;-79
2021/10/26 11:38:44;;;;;;;;;;;;;;;15.89;74.87;100289.19;5057125;28;20045;-79
2021/10/26 11:41:16;;;;;;;10.48;2.88;;;;;;;15.89;75.14;100308.72;5057042;28;19936;-81
2021/10/26 11:43:48;;;;;;;9.70;2.03;;;;;;;15.89;75.43;100305.94;5027250;28;20045;-81
2021/10/26 11:46:25;;;;;;;7.15;1.73;;;;;;;15.88;75.31;100298.75;5045322;28;20045;-80
2021/10/26 11:49:07;;;;;;;13.38;1.92;;;;;;;15.89;75.44;100310.69;5057230;28;20040;-78
2021/10/26 11:51:37;;;;;;;13.77;2.45;;;;;;;15.88;75.22;100286.78;5055942;28;20496;-79